AREA preflight bulletin
Updated "live" 03 Apr 2020, 09:28

back to the map




METAR og TAF


NARSARSUAQ
  SPECI(AL) BGBW 030856Z VRB03KT 9999 SKC M07/M19 Q1020=
  AKTUEL BGBW 030850Z AUTO 04004KT 350V090 9999NDV NCD M06/M19 Q1019=
  TAF 9 timer BGBW 030859Z 0309/0318 10005KT 9999 FEW200=

QAQORTOQ
  AKTUEL BGJH 030920Z AUTO /////KT //// ///////// M06/M13 Q1018=

PAAMIUT
  AKTUEL BGPT 030920Z AUTO 35004KT 310V040 9999NDV NCD M05/M11 Q1021=
  TAF 9 timer BGPT 021921Z 0219/0221 CNL=

NARSAQ
  AKTUEL BGNS 030920Z AUTO VRB03KT //// ///////// M06/M16 Q1018=

NANORTALIK
  AKTUEL BGNN 030920Z AUTO 36006KT //// ///////// M03/M11 Q1018=

NUUK
  AKTUEL BGGH 030850Z 04012KT 360V060 9999 SKC M08/M14 Q1026=
  TAF 9 timer BGGH 030839Z 0309/0318 02017KT 9999 FEW200=

KANGERLUSSUAQ
  SPECI(AL) BGSF 030923Z 08007KT 9999 FEW018 BKN030 M21/M27 Q1039=
  AKTUEL BGSF 030850Z 06006KT 9999 FEW100 M22/M28 Q1039=
  TAF 18/24 timer BGSF 030925Z 0309/0322 06008KT 9999 FEW020 BKN030 TEMPO 0309/0322 6000 -SN BKN018=


SIGMETS:

SONDRESTROM FIR
  SIGMET BGGL SIGMET U02 VALID 030505/030905 BGSF- BGGL NUUK FIR SEV TURB FCST AT 0505Z WI N8319 W04603 - N8402 W01927 - N8140 W00901 - N7506 W01542 - N7640 W02422 - N8319 W04603 SFC/FL120 STNR NC=

SONDRESTROM FIR
  SIGMET BGGL SIGMET U03 VALID 030905/031305 BGSF- BGGL NUUK FIR SEV TURB FCST AT 0905Z WI N8259 W04943 - N8356 W02941 - N8126 W00912 - N7351 W01831 - N7502 W02404 - N8007 W02904 - N8259 W04943 SFC/FL120 STNR NC=

SNOWTAM:

ICAO
BGGH (NUUK)

valid from:
2004030735

Notam_id:
0629

SNOWTAM 0629 A) BGGH B) 04030735 C) 05 F) 7/7/7 G) 1/1/1 H) 5/5/5 N) NIL/GOOD R) 7/GOOD T) RWY COVERED 10 PERCENT 1 MM ICW MEASURED FRICTION COEFFICIENT 80/80/80 TAP


ICAO
BGSF (KANGERLUSSUAQ)

valid from:
2004030915

Notam_id:
0501

SNOWTAM 0501 A)BGSF B)04030915 C)09 F)NIL/NIL/NIL N)A B/NIL/GOOD C D/7/GOOD R)N/NIL/GOOD E W/7/GOOD HELIAPRON/7/POOR T)MEASURED FRICTION COEFFICIENTS 90/90/90 TAP, RWY CLEAR AND DRY



NOTAM/SNOWTAM for operationel use has to be confirmed with the
nearest AIS Briefing Office prior to a flight.

ICAO
BGBW (NARSARSUAQ)

FIR
BGGL

Notam_id:
BGA0608/19

valid from:
1912231316

E) SEA RESCUE BOAT TAKEN ASHORE. CAN BE LAUNCHED WITHIN 45 MINS IN CASE OF EMERGENCY - ICE CONDITIONS IN HARBOUR AND WEATHER PERMITTING.

valid to:
2005011400EST




ICAO
BGBW (NARSARSUAQ)

FIR
BGGL

Notam_id:
BGA0119/20

valid from:
2003141500

E) COVID-19. BASED ON DECISION TAKEN BY THE DANISH AND GREENLANDIC AUTHORITIES. IN CONNECTION WITH NON SCHEDULED FLIGHTS FROM ABROAD, BGBW AFIS MUST BE CONTACTED ON TELEPHONE 00299 38 28 55 BEFORE DEPARTING FOR GREENLAND. IN CASE OF FERRY FLIGHTS, ONLY TRANSIENT FLIGHTS CAN BE ALLOWED WHERE THE PURPOSE IS TECHNICAL STOPS EG. REFUELING. FLIGHTS MUST BE CONTINUED IMMEDIATELY AFTER A TECHNICAL STOP WITHOUT AN EXTENDED STAY.

valid to:
2004140300




ICAO
BGBW (NARSARSUAQ)

FIR
BGGL

Notam_id:
BGA0142/20

valid from:
2003311854

E) EVERY OTHER THR LIGHT RWY 06/24 U/S.

valid to:
2004071900EST


Replacing:
BGA0116/20

ICAO
BGBW (NARSARSUAQ)

FIR
BGGL

Notam_id:
BGA0143/20

valid from:
2003311857

E) EVERY OTHER RWY EDGE LIGHT RWY 06/24 U/S.

valid to:
2004071900EST


Replacing:
BGA0117/20

ICAO
BGBW (NARSARSUAQ)

FIR
BGGL

Notam_id:
BGA0098/20

valid from:
2003061356

E) REF. AIP GREENLAND AD 2 - BGBW - 2, RESCUE AND FIRE FIGHTING SERVICE, AD CATEGORY FOR FIREFIGHTING: CAT 5, 6 OR 7 PPR 3 HR FOR AC WITH A MTOM OF 10 TONS OR MORE OR WHICH CARRY 20 PASSENGER SEATS OR MORE, EXCEPT FOR SCHEDULED COMMERCIAL FLIGHTS. OUTSIDE HOURS OF SERVICE PPR MNM 8 HR.

valid to:
PERM




ICAO
BGBW (NARSARSUAQ)

FIR
BGGL

Notam_id:
BGA0144/20

valid from:
2003311904

E) EVERY OTHER RWY END IDENTIFIER LIGHT RWY 06/24 U/S.

valid to:
2004071900EST


Replacing:
BGA0115/20

ICAO
BGJH (QAQORTOQ)

FIR
BGGL

Notam_id:
BGC0133/19

valid from:
1912231334

E) FATO AREA LGT CHARACTERISTICS, LOCATION: 15 GREEN EDGE LIGHTS.

valid to:
PERM


Replacing:
BGC0131/19

ICAO
BGJH (QAQORTOQ)

FIR
BGGL

Notam_id:
BGC0056/20

valid from:
2004021120

E) NORMAL OPENING HOURS WILL NOT BE AVAILABLE FOR BGJH HELIPORT.HELIPORT CAN BE OPENED WITH 1 HOUR PPR. CONTACT TLF: +229 582 585 FOR OPENING.

valid to:
2004081900


Replacing:
BGC0053/20

ICAO
BGJH (QAQORTOQ)

FIR
BGGL

Notam_id:
BGC0052/20

valid from:
2003171554

E) WIND DATA UNRELIABLE.

valid to:
2004071200EST


Replacing:
BGC0038/20

ICAO
BGJH (QAQORTOQ)

FIR
BGGL

Notam_id:
BGC0046/20

valid from:
2003051526

E) REF. AIP GREENLAND AD 4 - BGJH - 1, MARKINGS - REMARKS : NIL. (THERE IS NO MARKINGS FOR TLOF EDGE).

valid to:
PERM




ICAO
BGPT (PAAMIUT)

FIR
BGGL

Notam_id:
BGB0263/20

valid from:
2003141500

E) COVID-19. BASED ON DECISION TAKEN BY THE DANISH AND GREENLANDIC AUTHORITIES. IN CONNECTION WITH NON SCHEDULED FLIGHTS FROM ABROAD, BGPT AFIS MUST BE CONTACTED ON TELEPHONE 00299 68 42 01 BEFORE DEPARTING FOR GREENLAND. IN CASE OF FERRY FLIGHTS, ONLY TRANSIENT FLIGHTS CAN BE ALLOWED WHERE THE PURPOSE IS TECHNICAL STOPS EG. REFUELING. FLIGHTS MUST BE CONTINUED IMMEDIATELY AFTER A TECHNICAL STOP WITHOUT AN EXTENDED STAY.

valid to:
2004140300




ICAO
BGNS (NARSAQ)

FIR
BGGL

Notam_id:
BGC0018/20

valid from:
2001231331

E) FATO AREA LGT CHARATERISTICS, LOCATION: GREEN, EDGE

valid to:
PERM




ICAO
BGNS (NARSAQ)

FIR
BGGL

Notam_id:
BGC0054/20

valid from:
2003231455

E) NORMAL OPENING HOURS WILL NOT BE AVAILABLE. HELIPORT CAN BE OPENED WITH 1 HOUR PPR. CONTACT TLF: +299 58 41 49 FOR OPENING.

valid to:
2004041200EST




ICAO
BGNN (NANORTALIK)

FIR
BGGL

Notam_id:
BGC0019/20

valid from:
2001231336

E) FATO AREA LGT CHARATERISTICS, LOCATION: GREEN, EDGE.

valid to:
PERM




ICAO
BGGL (SONDRESTROM FIR)

FIR
BGGL

Notam_id:
BGA0139/20

valid from:
2003311025

E) NUUK INFORMATION FREQ 5526 KHZ PSN 6334N03707W KULUSUK U/S.

valid to:
2004301200


Replacing:
BGA0483/19

ICAO
BGGL (SONDRESTROM FIR)

FIR
BGGL

Notam_id:
BGA0146/20

valid from:
2004010457

E) CHECKLIST YEAR=2018 0199 YEAR=2019 0608 YEAR=2020 0027 0098 0119 0121 0122 0128 0130 0132 0133 0135 0138 0139 0141 0142 0143 0144 0145 LATEST PUBLICATIONS AIP AIRAC AMDT IFR 002/2020 EFFECTIVE DATE 23 APR 20 AIP AMDT IFR 003/2018 EFFECTIVE DATE 15 MAR 18 AIP SUP IFR 002/2019 EFFECTIVE DATE 08 NOV 19 AIC IFR A001/2019 EFFECTIVE DATE 17 JAN 19 AIC CHECKLIST AIP IFR A001/2016 A002/2016 A001/2017 A002/2017 A002/2018 A003/2018 A004/2018 A001/2019 AIP VFR NIL AIP MIL NIL SUP CHECKLIST AIP IFR NIL AIP VFR NIL AIP MIL NIL

valid to:
2005010457EST


Replacing:
BGA0091/20

ICAO
BGGL (SONDRESTROM FIR)

FIR
BGGL

Notam_id:
BGB0311/20

valid from:
2004010459

E) CHECKLIST YEAR=2019 0606 0677 0734 0765 0787 0808 0828 0829 YEAR=2020 0010 0090 0137 0153 0154 0155 0178 0186 0228 0238 0251 0252 0256 0260 0261 0263 0264 0265 0266 0270 0271 0272 0273 0274 0276 0284 0285 0292 0294 0297 0303 0307 0310 LATEST PUBLICATIONS AIP AIRAC AMDT IFR 002/2020 EFFECTIVE DATE 23 APR 20 AIP AMDT IFR 003/2018 EFFECTIVE DATE 15 MAR 18 AIP SUP IFR 002/2019 EFFECTIVE DATE 08 NOV 19 AIC IFR A001/2019 EFFECTIVE DATE 17 JAN 19 AIC CHECKLIST AIP IFR A001/2016 A002/2016 A001/2017 A002/2017 A002/2018 A003/2018 A004/2018 A001/2019 AIP VFR NIL AIP MIL NIL SUP CHECKLIST AIP IFR NIL AIP VFR NIL AIP MIL NIL

valid to:
2005010459EST


Replacing:
BGB0226/20

ICAO
BGGL (SONDRESTROM FIR)

FIR
BGGL

Notam_id:
BGC0055/20

valid from:
2004010459

E) CHECKLIST YEAR=2019 0133 YEAR=2020 0018 0019 0044 0046 0047 0052 0053 0054 LATEST PUBLICATIONS AIP AIRAC AMDT IFR 002/2020 EFFECTIVE DATE 23 APR 20 AIP AMDT IFR 003/2018 EFFECTIVE DATE 15 MAR 18 AIP SUP IFR 002/2019 EFFECTIVE DATE 08 NOV 19 AIC IFR A001/2019 EFFECTIVE DATE 17 JAN 19 AIC CHECKLIST AIP IFR A001/2016 A002/2016 A001/2017 A002/2017 A002/2018 A003/2018 A004/2018 A001/2019 AIP VFR NIL AIP MIL NIL SUP CHECKLIST AIP IFR NIL AIP VFR NIL AIP MIL NIL

valid to:
2005010459EST


Replacing:
BGC0041/20

ICAO
BGGL (SONDRESTROM FIR)

FIR
BGGL

Notam_id:
BGA0122/20

valid from:
2003141820

E) COVID-19. BASED ON DANISH GOVERNMENT DECISION NON-DANISH CITIZENS (CITIZENS OF CONTRIES OUTSITE THE DANISH REALM) WILL NOT BE ALLOWED TO ENTER GREENLAND UNLESS THEY HAVE WORTHY REASON. TURISM AND NORMAL VISITS TO FAMILY WITHOUT SPECIAL REASON WILL NOT BE CONSIDERED A WORTHY REASON.

valid to:
2004140300




ICAO
BGGL (SONDRESTROM FIR)

FIR
BGGL

Notam_id:
BGA0130/20

valid from:
2003230900

E) DIRECTION OF CRUISING LEVELS FOR RNP-ROUTE UT596 IS CHANGED FROM ODD FLIGHT LEVELS DIRECTION JV-GH TO ODD FLIGHT LEVELS DIRECTION GH-JV.

valid to:
PERM




ICAO
BGGL (SONDRESTROM FIR)

FIR
BGGL

Notam_id:
BGA0199/18

valid from:
1805310935

E) GREENLAND AND ADJACENT WATERS ARE CONSIDERED HOSTILE AREAS BY THE CIVIL AVIATION AUTHORITY (TBST). THREE MAJOR REASONS CONTRIBUTE TO DEFINING THE AREA AS HOSTILE: A SAFE FORCED LANDING CANNOT BE ACCOMPLISHED BECAUSE THE SURFACE IS INADEQUATE. THE HELICOPTER OCCUPANTS CANNOT BE ADEQUATELY PROTECTED FROM THE ELEMENTS. SEARCH AND RESCUE RESPONSE/CAPABILITY ARE NOT PROVIDED CONSISTENT WITH ANTICIPATED EXPOSURE.

valid to:
PERM




ICAO
BGGL (SONDRESTROM FIR)

FIR
BGGL

Notam_id:
BGA0132/20

valid from:
2003230954

E) DIRECTION OF CRUISING LEVELS FOR RNP-ROUTE UT595 IS CHANGED FROM ODD TO EVEN FLIGHT LEVELS DIRECTION QQ-JV AND FROM EVEN TO ODD FLIGHT LEVELS DIRECTION JV-QQ.

valid to:
PERM




ICAO
BGGL (SONDRESTROM FIR)

FIR
BGGL

Notam_id:
BGA0027/20

valid from:
2003260000

E) TRIGGER NOTAM - PERM AIP AIRAC AMDT 01/20 WEF 26 MAR 2020. REF GEN 2.4: BGIO, BGMO, BGQK AND BGSO WITHDRAWN. REF ENR 4.4: NEW LAYOUT AND DESIGNATOR UPDATED. DESIGNATOR ADMIP, ANVEP, BAMUG, DOPOK, ELTUX, GENSA, GONEN, GUBDA, INGAS, KULOX, KUVIG, LOBKA, LUTEV, MADIX, NANOK, NIPOT, NODBA, NOVGO, OSVOV, PIXIV, ROPKI, UVIRI AND VAPAN DELETED AS THEY DID NOT HAVE ANY RELATION TO THE ENROUTE STRUCTURE AND ARE NOW ONLY SHOWN ON RESPECTIVE IAC IN AD 2.

valid to:
2004082359




ICAO
BGGL (SONDRESTROM FIR)

FIR
BGGL

Notam_id:
BGA0133/20

valid from:
2003231133

E) DIRECTION OF CRUISING LEVELS FOR RNP-ROUTE UT593 IS CHANGED FROM ODD TO EVEN FLIGHT LEVELS DIRECTION SABAG-DA.

valid to:
PERM


Replacing:
BGA0131/20

ICAO
BGGH (NUUK)

FIR
BGGL

Notam_id:
BGB0316/20

valid from:
2004021207

E) LIMITED AMOUNT OF 100LL AVGAS. PLEASE CONTACT NUUK AFIS +299 382654 OR BGGH AT MIT.GL PRIOR TO DEPARTURE TOWARDS NUUK FOR AVGAS AVAILABILITY.

valid to:
2004301400EST


Replacing:
BGB0315/20

ICAO
BGGH (NUUK)

FIR
BGGL

Notam_id:
BGB0264/20

valid from:
2003141500

E) COVID-19. BASED ON DECISION TAKEN BY THE DANISH AND GREENLANDIC AUTHORITIES. IN CONNECTION WITH NON SCHEDULED FLIGHTS FROM ABROAD, BGGH AFIS MUST BE CONTACTED ON TELEPHONE 00299 32 75 53 BEFORE DEPARTING FOR GREENLAND. IN CASE OF FERRY FLIGHTS, ONLY TRANSIENT FLIGHTS CAN BE ALLOWED WHERE THE PURPOSE IS TECHNICAL STOPS EG. REFUELING. FLIGHTS MUST BE CONTINUED IMMEDIATELY AFTER A TECHNICAL STOP WITHOUT AN EXTENDED STAY.

valid to:
2004140300




ICAO
BGGH (NUUK)

FIR
BGGL

Notam_id:
BGB0303/20

valid from:
2003282036

E) LIGHTING ON RWY DESIGNATION SIGNS U/S.

valid to:
2004281500EST


Replacing:
BGB0222/20

ICAO
BGGH (NUUK)

FIR
BGGL

Notam_id:
BGB0228/20

valid from:
2003021116

E) BGGH AFIS FREQ 119.100 MHZ LIMITED RADIOCOVERAGE WITHIN TIZ TO THE NE, E, SE AND S.

valid to:
2004301500EST


Replacing:
BGB0227/20

ICAO
BGSF (KANGERLUSSUAQ)

FIR
BGGL

Notam_id:
BGA0121/20

valid from:
2003141500

E) COVID-19. BASED ON DECISION TAKEN BY THE DANISH AND GREENLANDIC AUTHORITIES. IN CONNECTION WITH NON SCHEDULED FLIGHTS FROM ABROAD, BGSF ARO MUST BE CONTACTED ON TELEPHONE 00299 38 29 05 BEFORE DEPARTING FOR GREENLAND. IN CASE OF FERRY FLIGHTS, ONLY TRANSIENT FLIGHTS CAN BE ALLOWED WHERE THE PURPOSE IS TECHNICAL STOPS EG. REFUELING. FLIGHTS MUST BE CONTINUED IMMEDIATELY AFTER A TECHNICAL STOP WITHOUT AN EXTENDED STAY.

valid to:
2004140300


Replacing:
BGA0120/20


Copyright Naviair   2003-2016